createdAt,value
2022-11-30T00:01:14.384Z,145015.78
2022-11-30T00:03:41.501Z,145007.28
2022-11-30T00:06:11.342Z,145017.00
2022-11-30T00:08:38.679Z,145019.44
2022-11-30T00:11:14.767Z,144938.19
2022-11-30T00:13:42.027Z,144978.16
2022-11-30T00:16:10.088Z,145021.84
2022-11-30T00:18:37.688Z,145032.72
2022-11-30T00:21:08.587Z,145021.84
2022-11-30T00:23:40.197Z,145004.84
2022-11-30T00:26:09.743Z,144990.31
2022-11-30T00:28:37.929Z,144944.22
2022-11-30T00:31:07.876Z,145033.97
2022-11-30T00:33:37.345Z,145003.66
2022-11-30T00:36:07.283Z,145036.38
2022-11-30T00:38:34.300Z,145004.84
2022-11-30T00:41:02.115Z,144996.34
2022-11-30T00:43:30.604Z,144900.56
2022-11-30T00:45:57.828Z,144984.25
2022-11-30T00:48:25.392Z,145001.25
2022-11-30T00:50:52.636Z,144990.31
2022-11-30T00:53:20.999Z,145000.00
2022-11-30T00:55:48.487Z,144990.31
2022-11-30T00:58:15.914Z,144989.09
2022-11-30T01:00:43.432Z,144997.59
2022-11-30T01:03:10.826Z,144995.16
2022-11-30T01:05:38.581Z,144979.41
2022-11-30T01:08:07.869Z,145020.63
2022-11-30T01:10:36.622Z,145029.13
2022-11-30T01:13:04.112Z,145004.84
2022-11-30T01:15:31.711Z,144922.41
2022-11-30T01:17:59.227Z,145033.97
2022-11-30T01:20:26.320Z,145017.00
2022-11-30T01:22:55.093Z,145000.00
2022-11-30T01:25:22.674Z,145019.44
2022-11-30T01:27:50.852Z,145004.84
2022-11-30T01:30:18.414Z,145002.44
2022-11-30T01:32:45.477Z,144985.47
2022-11-30T01:35:12.499Z,144997.59
2022-11-30T01:37:39.515Z,144991.50
2022-11-30T01:40:07.269Z,144992.75
2022-11-30T01:42:34.308Z,145014.53
2022-11-30T01:45:02.490Z,144987.91
2022-11-30T01:47:40.669Z,145017.00
2022-11-30T01:50:32.301Z,145004.84
2022-11-30T01:52:59.677Z,144991.50
2022-11-30T01:55:36.178Z,144995.16
2022-11-30T01:58:16.415Z,144966.06
2022-11-30T02:00:47.111Z,144947.88
2022-11-30T02:03:28.584Z,145004.84
2022-11-30T02:05:55.680Z,145012.13
2022-11-30T02:08:23.148Z,145015.78
2022-11-30T02:10:54.550Z,145002.44
2022-11-30T02:13:38.659Z,144990.31
2022-11-30T02:16:44.009Z,145000.00
2022-11-30T02:19:13.552Z,144995.16
2022-11-30T02:21:51.478Z,144990.31
2022-11-30T02:24:51.176Z,145017.00
2022-11-30T02:27:28.076Z,144928.50
2022-11-30T02:30:06.855Z,144985.47
2022-11-30T02:32:39.396Z,144987.91
2022-11-30T02:35:08.801Z,145007.28
2022-11-30T02:37:37.347Z,145007.28
2022-11-30T02:40:14.830Z,145009.69
2022-11-30T02:42:42.753Z,144997.59
2022-11-30T02:45:11.309Z,144995.16
2022-11-30T02:47:49.708Z,144893.31
2022-11-30T02:50:43.195Z,144953.94
2022-11-30T02:53:10.496Z,144972.13
2022-11-30T02:55:37.523Z,144978.16
2022-11-30T02:58:05.409Z,144973.31
2022-11-30T03:00:32.606Z,144973.31
2022-11-30T03:02:59.707Z,144978.16
2022-11-30T03:05:26.735Z,144983.06
2022-11-30T03:07:53.801Z,144975.75
2022-11-30T03:10:20.933Z,144980.59
2022-11-30T03:12:48.008Z,144964.88
2022-11-30T03:15:15.135Z,144985.47
2022-11-30T03:17:42.190Z,144990.31
2022-11-30T03:20:09.942Z,144978.16
2022-11-30T03:22:36.945Z,144981.81
2022-11-30T03:25:04.182Z,144984.25
2022-11-30T03:27:31.268Z,144978.16
2022-11-30T03:29:58.247Z,144936.94
2022-11-30T03:32:25.513Z,145007.28
2022-11-30T03:34:52.596Z,144900.56
2022-11-30T03:37:19.746Z,144997.59
2022-11-30T03:39:46.735Z,145002.44
2022-11-30T03:42:13.729Z,145002.44
2022-11-30T03:44:40.755Z,145035.19
2022-11-30T03:47:07.925Z,144992.75
2022-11-30T03:49:34.957Z,145017.00
2022-11-30T03:52:02.228Z,145015.78
2022-11-30T03:54:29.204Z,144997.59
2022-11-30T03:56:56.171Z,145006.09
2022-11-30T03:59:23.199Z,145006.09
2022-11-30T04:01:50.275Z,145003.66
2022-11-30T04:04:17.332Z,145000.00
2022-11-30T04:06:44.376Z,144993.94
2022-11-30T04:09:12.512Z,144993.94
2022-11-30T04:11:39.566Z,144995.16
2022-11-30T04:14:06.577Z,145009.69
2022-11-30T04:16:33.784Z,144987.91
2022-11-30T04:19:00.944Z,145019.44
2022-11-30T04:21:27.982Z,145026.69
2022-11-30T04:23:54.965Z,145002.44
2022-11-30T04:26:21.967Z,145004.84
2022-11-30T04:28:49.015Z,144920.00
2022-11-30T04:31:16.088Z,145001.25
2022-11-30T04:33:43.135Z,144990.31
2022-11-30T04:36:19.451Z,144983.06
2022-11-30T04:38:47.199Z,144995.16
2022-11-30T04:41:14.640Z,144995.16
2022-11-30T04:43:41.630Z,144987.91
2022-11-30T04:46:08.755Z,144898.16
2022-11-30T04:48:35.900Z,144995.16
2022-11-30T04:51:06.007Z,144980.59
2022-11-30T04:53:33.986Z,144995.16
2022-11-30T04:56:10.775Z,144966.06
2022-11-30T04:58:38.909Z,144985.47
2022-11-30T05:01:06.837Z,144990.31
2022-11-30T05:03:33.997Z,144975.75
2022-11-30T05:06:01.320Z,144976.97
2022-11-30T05:08:28.344Z,144975.75
2022-11-30T05:10:55.473Z,144975.75
2022-11-30T05:13:26.269Z,144983.06
2022-11-30T05:15:53.851Z,144987.91
2022-11-30T05:18:21.397Z,145004.84
2022-11-30T05:20:50.197Z,144907.88
2022-11-30T05:23:17.943Z,145002.44
2022-11-30T05:25:45.640Z,144955.13
2022-11-30T05:28:13.424Z,145010.94
2022-11-30T05:30:41.916Z,145000.00
2022-11-30T05:33:09.362Z,144987.91
2022-11-30T05:35:36.427Z,144989.09
2022-11-30T05:38:04.515Z,144995.16
2022-11-30T05:40:33.428Z,144989.09
2022-11-30T05:43:02.082Z,144992.75
2022-11-30T05:45:29.978Z,145000.00
2022-11-30T05:47:57.077Z,144939.38
2022-11-30T05:50:24.246Z,145007.28
2022-11-30T05:52:56.414Z,144996.34
2022-11-30T05:55:24.630Z,145009.69
2022-11-30T05:57:51.843Z,145007.28
2022-11-30T06:00:19.703Z,145015.78
2022-11-30T06:02:46.991Z,145031.53
2022-11-30T06:05:14.199Z,145014.53
2022-11-30T06:07:41.713Z,144991.50
2022-11-30T06:10:09.156Z,144980.59
2022-11-30T06:12:36.216Z,145014.53
2022-11-30T06:15:03.972Z,144939.38
2022-11-30T06:17:31.108Z,145004.84
2022-11-30T06:19:58.089Z,144976.97
2022-11-30T06:22:25.405Z,144987.91
2022-11-30T06:24:52.419Z,145009.69
2022-11-30T06:27:19.459Z,145014.53
2022-11-30T06:29:46.509Z,145009.69
2022-11-30T06:32:13.658Z,145000.00
2022-11-30T06:34:40.759Z,145007.28
2022-11-30T06:37:07.779Z,144998.81
2022-11-30T06:40:04.720Z,145018.19
2022-11-30T06:42:22.188Z,145009.69
2022-11-30T06:44:49.723Z,145002.44
2022-11-30T06:47:16.802Z,145009.69
2022-11-30T06:49:43.829Z,145026.69
2022-11-30T06:52:10.916Z,145007.28
2022-11-30T06:54:37.970Z,145017.00
2022-11-30T06:57:05.000Z,145004.84
2022-11-30T06:59:32.010Z,144949.09
2022-11-30T07:02:02.883Z,144995.16
2022-11-30T07:04:34.611Z,144904.22
2022-11-30T07:07:01.642Z,145007.28
2022-11-30T07:09:28.817Z,145033.97
2022-11-30T07:11:55.803Z,144951.53
2022-11-30T07:14:22.837Z,144995.16
2022-11-30T07:16:49.877Z,144952.72
2022-11-30T07:19:17.081Z,145000.00
2022-11-30T07:21:44.575Z,144932.09
2022-11-30T07:24:30.582Z,144990.31
2022-11-30T07:27:00.061Z,144980.59
2022-11-30T07:29:27.868Z,144944.22
2022-11-30T07:31:55.562Z,145000.00
2022-11-30T07:34:22.760Z,144968.47
2022-11-30T07:36:49.844Z,144992.75
2022-11-30T07:39:17.018Z,144993.94
2022-11-30T07:41:44.422Z,145004.84
2022-11-30T07:44:11.910Z,144989.09
2022-11-30T07:46:39.163Z,144993.94
2022-11-30T07:49:07.560Z,144990.31
2022-11-30T07:51:35.910Z,144987.91
2022-11-30T07:54:03.301Z,144996.34
2022-11-30T07:56:30.413Z,145004.84
2022-11-30T07:59:00.740Z,144989.09
2022-11-30T08:01:31.033Z,144978.16
2022-11-30T08:03:59.431Z,144991.50
2022-11-30T08:06:28.676Z,144993.94
2022-11-30T08:08:58.922Z,144997.59
2022-11-30T08:11:30.094Z,145001.25
2022-11-30T08:13:57.381Z,144932.09
2022-11-30T08:16:27.297Z,145024.28
2022-11-30T08:18:58.285Z,144997.59
2022-11-30T08:21:25.772Z,144991.50
2022-11-30T08:23:58.340Z,145008.50
2022-11-30T08:26:30.082Z,145032.72
2022-11-30T08:28:58.778Z,145033.97
2022-11-30T08:31:31.677Z,145035.19
2022-11-30T08:34:15.353Z,144923.59
2022-11-30T08:36:44.105Z,145053.38
2022-11-30T08:39:14.030Z,145024.28
2022-11-30T08:41:41.020Z,145046.06
2022-11-30T08:44:08.080Z,144955.13
2022-11-30T08:46:50.933Z,145035.19
2022-11-30T08:49:23.057Z,145018.19
2022-11-30T08:54:42.634Z,145050.94
2022-11-30T08:57:09.802Z,145069.13
2022-11-30T08:59:37.064Z,145017.00
2022-11-30T09:02:04.168Z,145000.00
2022-11-30T09:04:31.216Z,144924.84
2022-11-30T09:06:59.480Z,145043.69
2022-11-30T09:09:26.845Z,145043.69
2022-11-30T09:11:53.826Z,145033.97
2022-11-30T09:14:20.941Z,145029.13
2022-11-30T09:16:48.057Z,145070.38
2022-11-30T09:19:15.038Z,145029.13
2022-11-30T09:21:45.400Z,145050.94
2022-11-30T09:24:16.835Z,145053.38
2022-11-30T09:26:43.862Z,145046.06
2022-11-30T09:29:10.853Z,145050.94
2022-11-30T09:31:37.862Z,145058.22
2022-11-30T09:34:05.247Z,145053.38
2022-11-30T09:36:33.922Z,144932.09
2022-11-30T09:39:01.984Z,144993.94
2022-11-30T09:41:56.970Z,145041.22
2022-11-30T09:44:45.939Z,145057.03
2022-11-30T09:47:22.882Z,145077.63
2022-11-30T09:49:52.108Z,145077.63
2022-11-30T09:52:33.800Z,145063.06
2022-11-30T09:55:06.817Z,144945.44
2022-11-30T09:58:01.829Z,145080.06
2022-11-30T10:00:29.199Z,145063.06
2022-11-30T10:02:59.131Z,145036.38
2022-11-30T10:05:40.974Z,145038.81
2022-11-30T10:08:23.279Z,145038.81
2022-11-30T10:11:12.588Z,145026.69
2022-11-30T10:14:00.682Z,145060.66
2022-11-30T10:16:55.419Z,145053.38
2022-11-30T10:20:00.374Z,145074.00
2022-11-30T10:23:13.064Z,145035.19
2022-11-30T10:25:54.986Z,145049.72
2022-11-30T10:28:53.148Z,145052.16
2022-11-30T10:31:29.364Z,144970.91
2022-11-30T10:34:03.311Z,145038.81
2022-11-30T10:36:39.650Z,145041.22
2022-11-30T10:39:19.200Z,145031.53
2022-11-30T10:42:04.324Z,145046.06
2022-11-30T10:44:39.981Z,145038.81
2022-11-30T10:47:20.121Z,144946.69
2022-11-30T10:49:50.651Z,145019.44
2022-11-30T10:52:26.343Z,145024.28
2022-11-30T10:55:00.591Z,145029.13
2022-11-30T10:57:32.018Z,145092.22
2022-11-30T11:00:03.331Z,145017.00
2022-11-30T11:02:35.031Z,144962.44
2022-11-30T11:05:15.894Z,145106.75
2022-11-30T11:07:50.764Z,145092.22
2022-11-30T11:10:45.480Z,145160.09
2022-11-30T11:13:35.227Z,145138.31
2022-11-30T11:16:03.305Z,145086.13
2022-11-30T11:18:51.389Z,145128.59
2022-11-30T11:21:20.025Z,145061.88
2022-11-30T11:23:51.332Z,145183.19
2022-11-30T11:26:27.964Z,145111.59
2022-11-30T11:28:59.392Z,145058.22
2022-11-30T11:31:40.951Z,145131.00
2022-11-30T11:34:31.767Z,145090.97
2022-11-30T11:37:19.054Z,145095.81
2022-11-30T11:39:59.984Z,145123.69
2022-11-30T11:42:30.790Z,145065.50
2022-11-30T11:44:59.773Z,145118.84
2022-11-30T11:47:32.937Z,145206.25
2022-11-30T11:51:05.474Z,145252.41
2022-11-30T11:53:24.289Z,145266.94
2022-11-30T11:55:59.912Z,145304.56
2022-11-30T11:58:37.661Z,145266.94
2022-11-30T12:01:38.703Z,145262.09
2022-11-30T12:04:02.806Z,145237.81
2022-11-30T12:06:32.220Z,145236.56
2022-11-30T12:09:14.958Z,145236.56
2022-11-30T12:11:43.457Z,145095.81
2022-11-30T12:14:16.566Z,145186.78
2022-11-30T12:17:10.938Z,145206.25
2022-11-30T12:20:07.017Z,145169.84
2022-11-30T12:23:12.698Z,145154.06
2022-11-30T12:25:44.161Z,145201.41
2022-11-30T12:28:29.446Z,145155.25
2022-11-30T12:31:17.829Z,145181.94
2022-11-30T12:34:04.624Z,145144.34
2022-11-30T12:36:49.927Z,145220.78
2022-11-30T12:39:52.401Z,145218.34
2022-11-30T12:42:36.965Z,145109.16
2022-11-30T12:45:12.765Z,145245.06
2022-11-30T12:47:45.262Z,145212.28
2022-11-30T12:50:37.398Z,145208.66
2022-11-30T12:53:10.867Z,145223.19
2022-11-30T12:56:17.063Z,145235.34
2022-11-30T12:58:49.859Z,145249.91
2022-11-30T13:01:34.916Z,145213.50
2022-11-30T13:04:16.255Z,145232.91
2022-11-30T13:07:24.653Z,145217.16
2022-11-30T13:10:04.116Z,145184.41
2022-11-30T13:12:38.371Z,145155.25
2022-11-30T13:15:21.841Z,145152.84
2022-11-30T13:17:50.351Z,145211.09
2022-11-30T13:20:27.896Z,145206.25
2022-11-30T13:23:13.836Z,145237.81
2022-11-30T13:26:08.863Z,145175.91
2022-11-30T13:28:42.002Z,145185.59
2022-11-30T13:31:14.609Z,145194.09
2022-11-30T13:33:54.443Z,145198.94
2022-11-30T13:36:24.241Z,145185.59
2022-11-30T13:39:14.237Z,145219.59
2022-11-30T13:41:43.623Z,145206.25
2022-11-30T13:44:33.637Z,145228.06
2022-11-30T13:47:03.377Z,145196.50
2022-11-30T13:49:35.720Z,145181.94
2022-11-30T13:54:57.270Z,145160.09
2022-11-30T13:57:24.497Z,145184.41
2022-11-30T13:59:55.144Z,145143.16
2022-11-30T14:02:34.413Z,145155.25
2022-11-30T14:05:16.720Z,145162.53
2022-11-30T14:07:46.239Z,145161.34
2022-11-30T14:10:33.521Z,145149.19
2022-11-30T14:13:05.618Z,145177.09
2022-11-30T14:15:38.474Z,145165.00
2022-11-30T14:18:18.899Z,145174.69
2022-11-30T14:20:51.171Z,145131.00
2022-11-30T14:23:23.235Z,145139.50
2022-11-30T14:25:52.269Z,145089.75
2022-11-30T14:28:23.517Z,145052.16
2022-11-30T14:30:51.408Z,145009.69
2022-11-30T14:33:25.453Z,145015.78
2022-11-30T14:35:57.880Z,145092.22
2022-11-30T14:38:30.899Z,145066.72
2022-11-30T14:40:58.612Z,145081.25
2022-11-30T14:43:25.619Z,145098.25
2022-11-30T14:46:04.361Z,145109.16
2022-11-30T14:48:32.263Z,145070.38
2022-11-30T14:51:03.378Z,145046.06
2022-11-30T14:53:49.367Z,145082.47
2022-11-30T14:56:29.193Z,145070.38
2022-11-30T14:59:09.669Z,145026.69
2022-11-30T15:01:39.694Z,145021.84
2022-11-30T15:04:12.823Z,145017.00
2022-11-30T15:06:40.941Z,145033.97
2022-11-30T15:09:17.121Z,145042.47
2022-11-30T15:11:46.719Z,145050.94
2022-11-30T15:14:13.736Z,145043.69
2022-11-30T15:16:58.777Z,145029.13
2022-11-30T15:19:32.109Z,145041.22
2022-11-30T15:21:59.496Z,144968.47
2022-11-30T15:24:29.333Z,145003.66
2022-11-30T15:27:13.609Z,144997.59
2022-11-30T15:29:56.770Z,144955.13
2022-11-30T15:32:24.808Z,144987.91
2022-11-30T15:34:57.103Z,144970.91
2022-11-30T15:37:33.681Z,144987.91
2022-11-30T15:40:03.224Z,144973.31
2022-11-30T15:42:39.827Z,144992.75
2022-11-30T15:45:35.891Z,144966.06
2022-11-30T15:48:03.825Z,144985.47
2022-11-30T15:50:39.267Z,144951.53
2022-11-30T15:53:28.324Z,144998.81
2022-11-30T15:56:07.594Z,144990.31
2022-11-30T15:58:45.289Z,144997.59
2022-11-30T16:01:14.292Z,144935.75
2022-11-30T16:03:59.677Z,144995.16
2022-11-30T16:06:44.875Z,144907.88
2022-11-30T16:09:32.119Z,144987.91
2022-11-30T16:12:02.079Z,144990.31
2022-11-30T16:14:29.345Z,145004.84
2022-11-30T16:17:16.759Z,144981.81
2022-11-30T16:19:58.595Z,144873.94
2022-11-30T16:22:29.226Z,144883.63
2022-11-30T16:24:56.219Z,144981.81
2022-11-30T16:27:23.246Z,144963.63
2022-11-30T16:29:52.837Z,144963.63
2022-11-30T16:32:20.228Z,144963.63
2022-11-30T16:34:47.766Z,144929.69
2022-11-30T16:37:14.913Z,144963.63
2022-11-30T16:39:42.220Z,144956.38
2022-11-30T16:42:12.558Z,144871.50
2022-11-30T16:44:39.659Z,144978.16
2022-11-30T16:47:06.761Z,144958.78
2022-11-30T16:49:33.862Z,144973.31
2022-11-30T16:52:00.915Z,144962.44
2022-11-30T16:54:28.220Z,144958.78
2022-11-30T16:56:55.241Z,144944.22
2022-11-30T16:59:22.227Z,144939.38
2022-11-30T17:01:53.288Z,144939.38
2022-11-30T17:04:22.967Z,144883.63
2022-11-30T17:06:51.719Z,144898.16
2022-11-30T17:09:21.986Z,144839.97
2022-11-30T17:11:50.592Z,144939.38
2022-11-30T17:14:19.037Z,144929.69
2022-11-30T17:16:46.073Z,144921.19
2022-11-30T17:19:13.126Z,144946.69
2022-11-30T17:21:42.055Z,144935.75
2022-11-30T17:24:09.211Z,144946.69
2022-11-30T17:26:36.217Z,144932.09
2022-11-30T17:29:03.742Z,144936.94
2022-11-30T17:31:30.823Z,144950.28
2022-11-30T17:33:58.925Z,144898.16
2022-11-30T17:36:26.932Z,144962.44
2022-11-30T17:38:54.001Z,144966.06
2022-11-30T17:41:22.393Z,144944.22
2022-11-30T17:43:49.481Z,144949.09
2022-11-30T17:46:18.005Z,144924.84
2022-11-30T17:48:45.514Z,144922.41
2022-11-30T17:51:13.573Z,144929.69
2022-11-30T17:53:42.121Z,144913.91
2022-11-30T17:56:15.196Z,144866.66
2022-11-30T17:58:44.578Z,144894.53
2022-11-30T18:01:20.998Z,144915.16
2022-11-30T18:03:48.170Z,144855.75
2022-11-30T18:06:15.753Z,144909.06
2022-11-30T18:08:43.800Z,144869.06
2022-11-30T18:11:16.272Z,144864.22
2022-11-30T18:13:43.557Z,144859.34
2022-11-30T18:16:13.543Z,144847.28
2022-11-30T18:18:47.053Z,144930.91
2022-11-30T18:21:17.031Z,144900.56
2022-11-30T18:23:44.120Z,144939.38
2022-11-30T18:26:14.679Z,144910.31
2022-11-30T18:28:42.055Z,144839.97
2022-11-30T18:31:09.785Z,144905.41
2022-11-30T18:33:37.671Z,144922.41
2022-11-30T18:36:07.295Z,144912.72
2022-11-30T18:38:37.863Z,144912.72
2022-11-30T18:41:06.663Z,144864.22
2022-11-30T18:43:34.785Z,144878.78
2022-11-30T18:46:06.831Z,144812.09
2022-11-30T18:48:34.102Z,144815.75
2022-11-30T18:51:11.724Z,144859.34
2022-11-30T18:53:38.752Z,144893.31
2022-11-30T18:56:20.554Z,144873.94
2022-11-30T18:58:48.276Z,144898.16
2022-11-30T19:01:18.614Z,144933.34
2022-11-30T19:03:52.370Z,144907.88
2022-11-30T19:06:19.992Z,144915.16
2022-11-30T19:08:47.743Z,144776.94
2022-11-30T19:11:16.020Z,144881.19
2022-11-30T19:13:44.036Z,144860.59
2022-11-30T19:16:14.557Z,144903.00
2022-11-30T19:18:42.395Z,144807.25
2022-11-30T19:21:14.883Z,144915.16
2022-11-30T19:23:41.939Z,144912.72
2022-11-30T19:26:10.133Z,144886.03
2022-11-30T19:28:38.769Z,144895.72
2022-11-30T19:31:08.477Z,144912.72
2022-11-30T19:33:37.207Z,144846.03
2022-11-30T19:36:06.057Z,144718.78
2022-11-30T19:38:33.705Z,144815.75
2022-11-30T19:41:06.012Z,144740.59
2022-11-30T19:43:33.355Z,144797.56
2022-11-30T19:46:07.934Z,144815.75
2022-11-30T19:48:35.434Z,144836.34
2022-11-30T19:51:14.837Z,144809.66
2022-11-30T19:53:44.852Z,144735.75
2022-11-30T19:56:14.879Z,144830.28
2022-11-30T19:58:44.693Z,144779.41
2022-11-30T20:01:13.335Z,144836.34
2022-11-30T20:03:40.478Z,144787.88
2022-11-30T20:06:07.737Z,144733.34
2022-11-30T20:09:15.998Z,144820.59
2022-11-30T20:11:42.980Z,144779.41
2022-11-30T20:14:15.768Z,144842.41
2022-11-30T20:16:43.013Z,144823.00
2022-11-30T20:19:10.842Z,144823.00
2022-11-30T20:21:38.002Z,144832.69
2022-11-30T20:24:07.812Z,144854.50
2022-11-30T20:26:37.725Z,144769.72
2022-11-30T20:29:06.476Z,144856.97
2022-11-30T20:31:36.118Z,144766.06
2022-11-30T20:34:03.603Z,144820.59
2022-11-30T20:36:30.743Z,144757.56
2022-11-30T20:38:58.242Z,144795.13
2022-11-30T20:41:26.029Z,144784.25
2022-11-30T20:43:53.558Z,144793.94
2022-11-30T20:46:27.460Z,144842.41
2022-11-30T20:48:55.221Z,144860.59
2022-11-30T20:51:31.194Z,144893.31
2022-11-30T20:54:05.475Z,144837.56
2022-11-30T20:56:37.352Z,144866.66
2022-11-30T20:59:08.157Z,144869.06
2022-11-30T21:01:35.352Z,144831.50
2022-11-30T21:04:02.484Z,144839.97
2022-11-30T21:06:30.510Z,144819.41
2022-11-30T21:08:58.911Z,144859.34
2022-11-30T21:11:27.544Z,144789.09
2022-11-30T21:13:56.195Z,144871.50
2022-11-30T21:16:28.581Z,144866.66
2022-11-30T21:18:58.532Z,144861.81
2022-11-30T21:21:30.760Z,144823.00
2022-11-30T21:24:03.459Z,144831.50
2022-11-30T21:26:31.773Z,144883.63
2022-11-30T21:29:04.757Z,144838.78
2022-11-30T21:31:31.993Z,144854.50
2022-11-30T21:33:59.426Z,144846.03
2022-11-30T21:36:26.676Z,144866.66
2022-11-30T21:39:05.140Z,144866.66
2022-11-30T21:41:34.628Z,144881.19
2022-11-30T21:44:02.390Z,144823.00
2022-11-30T21:46:29.972Z,144866.66
2022-11-30T21:48:57.231Z,144880.00
2022-11-30T21:51:26.952Z,144793.94
2022-11-30T21:53:56.353Z,144889.69
2022-11-30T21:56:26.078Z,144873.94
2022-11-30T21:58:53.236Z,144852.13
2022-11-30T22:01:27.891Z,144865.44
2022-11-30T22:03:56.142Z,144854.50
2022-11-30T22:06:24.924Z,144820.59
2022-11-30T22:08:52.306Z,144849.66
2022-11-30T22:11:22.166Z,144813.31
2022-11-30T22:13:51.234Z,144877.53
2022-11-30T22:16:19.582Z,144869.06
2022-11-30T22:18:47.309Z,144869.06
2022-11-30T22:21:19.293Z,144867.84
2022-11-30T22:23:49.167Z,144792.72
2022-11-30T22:26:30.432Z,144855.75
2022-11-30T22:29:00.856Z,144832.69
2022-11-30T22:31:33.872Z,144883.63
2022-11-30T22:34:01.088Z,144873.94
2022-11-30T22:36:30.531Z,144890.88
2022-11-30T22:38:59.780Z,144876.34
2022-11-30T22:41:29.560Z,144886.03
2022-11-30T22:43:57.642Z,144860.59
2022-11-30T22:46:30.393Z,144861.81
2022-11-30T22:49:02.596Z,144863.00
2022-11-30T22:51:31.323Z,144784.25
2022-11-30T22:53:59.375Z,144824.25
2022-11-30T22:56:28.987Z,144839.97
2022-11-30T22:58:59.886Z,144850.88
2022-11-30T23:01:32.842Z,144861.81
2022-11-30T23:04:09.251Z,144881.19
2022-11-30T23:06:37.737Z,144875.16
2022-11-30T23:09:07.617Z,144881.19
2022-11-30T23:11:34.906Z,144881.19
2022-11-30T23:14:05.892Z,144883.63
2022-11-30T23:16:32.969Z,144873.94
2022-11-30T23:19:00.497Z,144808.47
2022-11-30T23:21:30.646Z,144890.88
2022-11-30T23:24:00.463Z,144829.09
2022-11-30T23:26:30.255Z,144849.66
2022-11-30T23:29:03.430Z,144849.66
2022-11-30T23:31:35.438Z,144821.81
2022-11-30T23:34:18.022Z,144876.34
2022-11-30T23:36:45.490Z,144870.31
2022-11-30T23:39:14.860Z,144847.28
2022-11-30T23:41:42.105Z,144892.13
2022-11-30T23:44:10.134Z,144905.41
2022-11-30T23:46:37.365Z,144890.88
2022-11-30T23:49:04.503Z,144890.88
2022-11-30T23:51:31.773Z,144853.31
2022-11-30T23:53:58.731Z,144869.06
2022-11-30T23:56:25.817Z,144877.53
2022-11-30T23:58:53.021Z,144888.47
